createdAt,value
2018-09-01T00:02:15.931Z,19.28
2018-09-01T00:04:45.018Z,19.25
2018-09-01T00:07:13.767Z,19.41
2018-09-01T00:09:42.495Z,19.48
2018-09-01T00:12:11.749Z,19.57
2018-09-01T00:14:40.800Z,19.53
2018-09-01T00:17:14.187Z,19.55
2018-09-01T00:19:43.181Z,19.74
2018-09-01T00:22:12.129Z,19.71
2018-09-01T00:24:41.157Z,19.58
2018-09-01T00:27:10.140Z,19.38
2018-09-01T00:29:39.258Z,19.43
2018-09-01T00:32:08.437Z,19.24
2018-09-01T00:34:37.343Z,19.25
2018-09-01T00:37:06.040Z,19.19
2018-09-01T00:39:38.955Z,19.24
2018-09-01T00:42:07.839Z,18.86
2018-09-01T00:44:36.692Z,18.94
2018-09-01T00:47:05.467Z,18.94
2018-09-01T00:49:34.460Z,18.85
2018-09-01T00:52:03.634Z,19.00
2018-09-01T00:54:32.679Z,18.96
2018-09-01T00:57:01.523Z,18.83
2018-09-01T00:59:30.458Z,19.18
2018-09-01T01:01:59.402Z,19.15
2018-09-01T01:04:28.150Z,18.63
2018-09-01T01:06:56.933Z,18.69
2018-09-01T01:09:25.660Z,18.56
2018-09-01T01:11:54.614Z,18.32
2018-09-01T01:14:23.289Z,18.35
2018-09-01T01:16:52.178Z,18.44
2018-09-01T01:19:21.015Z,18.55
2018-09-01T01:21:50.155Z,18.63
2018-09-01T01:24:19.119Z,18.72
2018-09-01T01:26:52.288Z,18.71
2018-09-01T01:29:20.990Z,18.65
2018-09-01T01:31:49.947Z,18.45
2018-09-01T01:34:18.981Z,18.53
2018-09-01T01:36:47.940Z,18.72
2018-09-01T01:39:16.889Z,18.66
2018-09-01T01:41:46.179Z,18.38
2018-09-01T01:44:15.366Z,18.65
2018-09-01T01:46:44.527Z,18.77
2018-09-01T01:49:13.283Z,18.68
2018-09-01T01:51:42.157Z,18.31
2018-09-01T01:54:11.090Z,18.29
2018-09-01T01:56:40.184Z,18.38
2018-09-01T01:59:09.113Z,18.40
2018-09-01T02:01:38.051Z,18.18
2018-09-01T02:04:07.014Z,18.14
2018-09-01T02:06:35.918Z,17.88
2018-09-01T02:09:05.720Z,17.93
2018-09-01T02:11:34.630Z,18.14
2018-09-01T02:14:03.703Z,18.12
2018-09-01T02:16:32.713Z,17.86
2018-09-01T02:19:01.686Z,18.00
2018-09-01T02:21:30.621Z,18.23
2018-09-01T02:23:59.374Z,17.43
2018-09-01T02:26:28.243Z,17.69
2018-09-01T02:28:56.952Z,17.93
2018-09-01T02:31:25.786Z,18.06
2018-09-01T02:33:54.734Z,18.03
2018-09-01T02:36:23.439Z,17.96
2018-09-01T02:38:52.334Z,17.75
2018-09-01T02:41:21.002Z,17.74
2018-09-01T02:43:49.814Z,17.38
2018-09-01T02:46:18.827Z,17.50
2018-09-01T02:48:48.007Z,17.48
2018-09-01T02:51:16.838Z,17.06
2018-09-01T02:53:46.213Z,17.18
2018-09-01T02:56:15.527Z,17.37
2018-09-01T02:58:44.330Z,17.29
2018-09-01T03:01:18.394Z,17.26
2018-09-01T03:03:47.477Z,17.09
2018-09-01T03:06:16.317Z,17.15
2018-09-01T03:08:45.017Z,17.15
2018-09-01T03:11:14.071Z,17.45
2018-09-01T03:13:42.893Z,17.22
2018-09-01T03:16:11.898Z,17.27
2018-09-01T03:18:40.951Z,17.02
2018-09-01T03:21:09.992Z,16.88
2018-09-01T03:23:39.140Z,16.96
2018-09-01T03:26:08.218Z,17.09
2018-09-01T03:28:37.128Z,17.24
2018-09-01T03:31:06.022Z,17.19
2018-09-01T03:33:35.213Z,17.40
2018-09-01T03:36:03.872Z,17.55
2018-09-01T03:38:32.865Z,17.51
2018-09-01T03:41:01.723Z,17.43
2018-09-01T03:43:30.738Z,17.37
2018-09-01T03:46:00.760Z,17.34
2018-09-01T03:48:29.601Z,17.17
2018-09-01T03:50:58.587Z,17.13
2018-09-01T03:53:27.581Z,17.01
2018-09-01T03:55:56.581Z,17.08
2018-09-01T03:58:25.662Z,17.20
2018-09-01T04:00:54.799Z,17.32
2018-09-01T04:03:23.759Z,17.27
2018-09-01T04:05:52.478Z,17.42
2018-09-01T04:08:21.281Z,17.50
2018-09-01T04:10:50.581Z,17.07
2018-09-01T04:13:19.660Z,16.95
2018-09-01T04:15:48.719Z,17.13
2018-09-01T04:18:17.644Z,17.12
2018-09-01T04:20:46.355Z,17.09
2018-09-01T04:23:15.451Z,17.11
2018-09-01T04:25:44.383Z,17.18
2018-09-01T04:28:13.316Z,17.39
2018-09-01T04:30:42.284Z,17.50
2018-09-01T04:33:11.414Z,17.43
2018-09-01T04:35:40.060Z,17.20
2018-09-01T04:38:08.970Z,17.43
2018-09-01T04:40:37.789Z,17.40
2018-09-01T04:43:07.522Z,17.54
2018-09-01T04:45:36.420Z,17.73
2018-09-01T04:48:05.856Z,17.83
2018-09-01T04:50:34.891Z,17.93
2018-09-01T04:53:03.750Z,18.09
2018-09-01T04:55:32.762Z,18.16
2018-09-01T04:58:01.617Z,18.32
2018-09-01T05:00:30.560Z,18.51
2018-09-01T05:02:59.320Z,18.66
2018-09-01T05:05:28.140Z,18.92
2018-09-01T05:07:56.850Z,19.27
2018-09-01T05:10:25.774Z,19.46
2018-09-01T05:12:55.128Z,19.48
2018-09-01T05:15:24.169Z,19.78
2018-09-01T05:17:53.365Z,19.86
2018-09-01T05:20:22.315Z,20.13
2018-09-01T05:22:51.196Z,20.20
2018-09-01T05:25:20.213Z,20.38
2018-09-01T05:27:49.126Z,20.42
2018-09-01T05:30:18.121Z,20.65
2018-09-01T05:32:46.898Z,20.78
2018-09-01T05:35:15.795Z,19.25
2018-09-01T05:37:44.610Z,21.09
2018-09-01T05:40:13.489Z,21.27
2018-09-01T05:42:42.362Z,21.48
2018-09-01T05:45:11.544Z,21.55
2018-09-01T05:47:40.462Z,21.71
2018-09-01T05:50:09.604Z,21.68
2018-09-01T05:52:38.515Z,21.71
2018-09-01T05:55:07.333Z,21.86
2018-09-01T05:57:36.292Z,21.83
2018-09-01T06:00:05.997Z,21.87
2018-09-01T06:02:34.778Z,21.80
2018-09-01T06:05:03.640Z,21.89
2018-09-01T06:07:32.562Z,21.85
2018-09-01T06:10:01.500Z,21.84
2018-09-01T06:12:30.455Z,21.77
2018-09-01T06:14:59.619Z,21.95
2018-09-01T06:17:28.699Z,22.04
2018-09-01T06:19:57.470Z,21.99
2018-09-01T06:22:26.634Z,21.97
2018-09-01T06:24:55.844Z,21.98
2018-09-01T06:27:27.943Z,21.93
2018-09-01T06:29:57.022Z,21.86
2018-09-01T06:32:26.221Z,21.80
2018-09-01T06:34:54.830Z,21.82
2018-09-01T06:37:23.744Z,21.89
2018-09-01T06:39:52.750Z,21.83
2018-09-01T06:42:21.882Z,21.86
2018-09-01T06:44:50.818Z,21.82
2018-09-01T06:47:19.719Z,21.57
2018-09-01T06:49:49.148Z,21.73
2018-09-01T06:52:17.960Z,21.88
2018-09-01T06:54:46.696Z,21.92
2018-09-01T06:57:15.406Z,21.86
2018-09-01T06:59:44.268Z,22.05
2018-09-01T07:02:13.490Z,22.23
2018-09-01T07:04:42.626Z,22.57
2018-09-01T07:07:11.534Z,22.68
2018-09-01T07:09:40.251Z,22.70
2018-09-01T07:12:09.268Z,22.73
2018-09-01T07:14:38.085Z,22.86
2018-09-01T07:17:06.934Z,23.07
2018-09-01T07:19:35.597Z,23.26
2018-09-01T07:22:04.936Z,23.44
2018-09-01T07:24:34.371Z,23.48
2018-09-01T07:27:03.619Z,23.79
2018-09-01T07:29:32.812Z,23.84
2018-09-01T07:32:01.644Z,23.97
2018-09-01T07:34:30.647Z,24.13
2018-09-01T07:36:59.445Z,24.44
2018-09-01T07:39:28.336Z,24.49
2018-09-01T07:41:57.172Z,24.50
2018-09-01T07:44:25.919Z,24.47
2018-09-01T07:46:54.725Z,24.59
2018-09-01T07:49:23.558Z,24.87
2018-09-01T07:51:52.476Z,25.19
2018-09-01T07:54:21.131Z,25.41
2018-09-01T07:56:50.169Z,25.56
2018-09-01T07:59:19.107Z,25.51
2018-09-01T08:01:48.306Z,25.70
2018-09-01T08:04:17.328Z,25.62
2018-09-01T08:06:46.246Z,25.85
2018-09-01T08:09:14.962Z,26.03
2018-09-01T08:11:43.655Z,26.13
2018-09-01T08:14:12.514Z,26.23
2018-09-01T08:16:41.578Z,26.11
2018-09-01T08:19:10.853Z,26.60
2018-09-01T08:21:40.194Z,26.88
2018-09-01T08:24:09.031Z,26.72
2018-09-01T08:26:38.000Z,26.31
2018-09-01T08:29:07.108Z,26.70
2018-09-01T08:31:36.179Z,26.98
2018-09-01T08:34:05.259Z,27.19
2018-09-01T08:36:33.968Z,27.10
2018-09-01T08:39:02.614Z,27.24
2018-09-01T08:41:31.697Z,27.35
2018-09-01T08:44:00.527Z,27.31
2018-09-01T08:46:29.626Z,27.45
2018-09-01T08:48:58.683Z,27.61
2018-09-01T08:51:27.729Z,28.10
2018-09-01T08:53:56.565Z,27.98
2018-09-01T08:56:25.647Z,28.24
2018-09-01T08:58:54.578Z,28.17
2018-09-01T09:01:23.478Z,28.35
2018-09-01T09:03:52.441Z,28.28
2018-09-01T09:06:21.123Z,28.37
2018-09-01T09:08:49.911Z,28.49
2018-09-01T09:11:19.118Z,28.52
2018-09-01T09:13:47.971Z,28.69
2018-09-01T09:16:16.948Z,28.78
2018-09-01T09:18:46.028Z,28.94
2018-09-01T09:21:14.741Z,29.16
2018-09-01T09:23:43.823Z,29.38
2018-09-01T09:26:12.640Z,29.64
2018-09-01T09:28:41.892Z,29.76
2018-09-01T09:31:11.322Z,29.76
2018-09-01T09:33:40.082Z,29.99
2018-09-01T09:36:08.774Z,30.04
2018-09-01T09:38:37.495Z,30.08
2018-09-01T09:41:07.048Z,30.38
2018-09-01T09:43:36.282Z,30.51
2018-09-01T09:46:05.135Z,30.76
2018-09-01T09:48:34.355Z,31.21
2018-09-01T09:51:03.539Z,31.66
2018-09-01T09:53:32.306Z,31.58
2018-09-01T09:56:01.159Z,31.85
2018-09-01T09:58:30.540Z,32.16
2018-09-01T10:01:03.547Z,32.50
2018-09-01T10:03:32.677Z,32.65
2018-09-01T10:06:02.104Z,32.16
2018-09-01T10:08:30.712Z,32.88
2018-09-01T10:10:59.618Z,33.26
2018-09-01T10:13:28.676Z,32.82
2018-09-01T10:15:57.575Z,33.10
2018-09-01T10:18:26.670Z,33.13
2018-09-01T10:20:55.618Z,33.52
2018-09-01T10:23:24.545Z,33.35
2018-09-01T10:25:53.752Z,33.69
2018-09-01T10:28:22.928Z,34.26
2018-09-01T10:30:51.954Z,33.86
2018-09-01T10:33:20.860Z,33.75
2018-09-01T10:35:49.674Z,34.01
2018-09-01T10:38:18.525Z,33.35
2018-09-01T10:40:47.834Z,33.76
2018-09-01T10:43:16.834Z,33.86
2018-09-01T10:45:46.007Z,33.87
2018-09-01T10:48:14.787Z,34.27
2018-09-01T10:50:43.586Z,34.07
2018-09-01T10:53:12.626Z,33.56
2018-09-01T10:55:41.679Z,33.16
2018-09-01T10:58:10.591Z,34.08
2018-09-01T11:00:39.619Z,34.42
2018-09-01T11:03:08.354Z,34.44
2018-09-01T11:05:37.231Z,34.75
2018-09-01T11:08:06.255Z,35.28
2018-09-01T11:10:35.487Z,35.14
2018-09-01T11:13:04.641Z,34.89
2018-09-01T11:15:33.559Z,34.08
2018-09-01T11:18:02.532Z,34.62
2018-09-01T11:20:31.780Z,35.11
2018-09-01T11:23:00.621Z,34.33
2018-09-01T11:25:29.442Z,34.38
2018-09-01T11:27:58.389Z,34.51
2018-09-01T11:30:27.407Z,35.13
2018-09-01T11:32:56.210Z,35.24
2018-09-01T11:35:24.942Z,35.73
2018-09-01T11:37:53.738Z,36.21
2018-09-01T11:40:22.635Z,36.33
2018-09-01T11:42:51.994Z,36.60
2018-09-01T11:45:20.976Z,36.74
2018-09-01T11:47:50.299Z,36.73
2018-09-01T11:50:19.381Z,36.83
2018-09-01T11:52:48.573Z,36.87
2018-09-01T11:55:17.538Z,37.02
2018-09-01T11:57:46.551Z,36.63
2018-09-01T12:00:15.518Z,36.66
2018-09-01T12:02:44.563Z,37.03
2018-09-01T12:05:13.178Z,37.22
2018-09-01T12:07:41.920Z,37.31
2018-09-01T12:10:10.739Z,36.83
2018-09-01T12:12:39.615Z,37.27
2018-09-01T12:15:08.728Z,37.60
2018-09-01T12:17:37.555Z,37.77
2018-09-01T12:20:06.806Z,37.46
2018-09-01T12:22:36.111Z,37.61
2018-09-01T12:25:05.271Z,37.50
2018-09-01T12:27:34.630Z,37.90
2018-09-01T12:30:03.539Z,37.86
2018-09-01T12:32:32.290Z,37.77
2018-09-01T12:35:01.086Z,37.85
2018-09-01T12:37:29.802Z,37.77
2018-09-01T12:39:58.702Z,37.71
2018-09-01T12:42:27.626Z,37.66
2018-09-01T12:44:56.583Z,38.42
2018-09-01T12:47:25.599Z,38.12
2018-09-01T12:49:54.635Z,38.17
2018-09-01T12:52:23.478Z,38.74
2018-09-01T12:54:52.448Z,38.62
2018-09-01T12:57:21.342Z,39.00
2018-09-01T12:59:50.262Z,39.14
2018-09-01T13:02:20.086Z,39.35
2018-09-01T13:04:49.130Z,39.04
2018-09-01T13:07:17.915Z,39.67
2018-09-01T13:09:47.022Z,39.41
2018-09-01T13:12:15.946Z,39.45
2018-09-01T13:14:44.811Z,39.48
2018-09-01T13:17:13.827Z,39.21
2018-09-01T13:19:43.664Z,38.92
2018-09-01T13:22:12.479Z,39.40
2018-09-01T13:24:41.402Z,40.16
2018-09-01T13:27:10.357Z,39.66
2018-09-01T13:29:39.100Z,39.55
2018-09-01T13:32:08.248Z,39.81
2018-09-01T13:34:37.108Z,40.03
2018-09-01T13:37:06.171Z,39.85
2018-09-01T13:39:34.978Z,40.32
2018-09-01T13:42:04.190Z,40.66
2018-09-01T13:44:33.173Z,40.54
2018-09-01T13:47:01.936Z,40.46
2018-09-01T13:49:31.381Z,40.88
2018-09-01T13:52:00.226Z,41.46
2018-09-01T13:54:29.274Z,41.16
2018-09-01T13:56:58.486Z,39.66
2018-09-01T13:59:27.368Z,39.62
2018-09-01T14:01:56.085Z,39.96
2018-09-01T14:04:24.805Z,40.73
2018-09-01T14:06:53.909Z,40.88
2018-09-01T14:09:22.856Z,40.25
2018-09-01T14:11:51.879Z,38.73
2018-09-01T14:14:20.800Z,38.43
2018-09-01T14:16:50.442Z,38.48
2018-09-01T14:19:19.389Z,39.88
2018-09-01T14:21:48.221Z,39.56
2018-09-01T14:24:17.516Z,39.71
2018-09-01T14:26:46.584Z,39.78
2018-09-01T14:29:15.332Z,39.75
2018-09-01T14:31:44.476Z,38.57
2018-09-01T14:34:13.280Z,39.11
2018-09-01T14:36:41.930Z,40.08
2018-09-01T14:39:12.200Z,39.78
2018-09-01T14:41:41.360Z,39.94
2018-09-01T14:44:11.133Z,39.08
2018-09-01T14:46:40.406Z,39.77
2018-09-01T14:49:09.475Z,39.09
2018-09-01T14:51:38.354Z,39.47
2018-09-01T14:54:07.829Z,39.55
2018-09-01T14:56:36.950Z,39.33
2018-09-01T14:59:05.622Z,38.36
2018-09-01T15:01:34.866Z,38.60
2018-09-01T15:04:03.716Z,38.87
2018-09-01T15:06:32.551Z,39.31
2018-09-01T15:09:01.876Z,39.06
2018-09-01T15:11:30.614Z,39.66
2018-09-01T15:13:59.715Z,39.47
2018-09-01T15:16:28.661Z,39.76
2018-09-01T15:18:57.426Z,39.59
2018-09-01T15:21:26.582Z,39.98
2018-09-01T15:23:55.790Z,39.86
2018-09-01T15:26:24.542Z,39.68
2018-09-01T15:28:53.587Z,39.03
2018-09-01T15:31:22.338Z,38.29
2018-09-01T15:33:50.960Z,37.67
2018-09-01T15:36:20.280Z,37.96
2018-09-01T15:38:49.450Z,37.74
2018-09-01T15:41:18.303Z,37.74
2018-09-01T15:43:47.874Z,37.30
2018-09-01T15:46:17.078Z,37.10
2018-09-01T15:48:46.000Z,36.85
2018-09-01T15:51:15.458Z,36.44
2018-09-01T15:53:44.840Z,35.74
2018-09-01T15:56:14.100Z,35.44
2018-09-01T15:58:43.375Z,35.23
2018-09-01T16:01:12.067Z,34.87
2018-09-01T16:03:40.763Z,34.08
2018-09-01T16:06:09.760Z,33.88
2018-09-01T16:08:38.511Z,33.57
2018-09-01T16:11:07.602Z,33.28
2018-09-01T16:13:36.658Z,32.90
2018-09-01T16:16:05.698Z,32.53
2018-09-01T16:18:34.777Z,32.17
2018-09-01T16:21:04.013Z,31.94
2018-09-01T16:23:32.943Z,31.17
2018-09-01T16:26:01.989Z,31.29
2018-09-01T16:28:30.799Z,31.25
2018-09-01T16:30:59.652Z,31.26
2018-09-01T16:33:28.296Z,31.26
2018-09-01T16:35:57.448Z,31.46
2018-09-01T16:38:26.090Z,31.25
2018-09-01T16:40:55.309Z,31.18
2018-09-01T16:43:24.438Z,31.22
2018-09-01T16:45:53.326Z,30.97
2018-09-01T16:48:22.217Z,30.70
2018-09-01T16:50:51.526Z,30.76
2018-09-01T16:53:20.260Z,30.57
2018-09-01T16:55:49.203Z,30.41
2018-09-01T16:58:17.949Z,30.26
2018-09-01T17:00:46.729Z,30.04
2018-09-01T17:03:15.376Z,29.83
2018-09-01T17:05:44.458Z,29.71
2018-09-01T17:08:13.459Z,29.50
2018-09-01T17:10:42.858Z,29.48
2018-09-01T17:13:11.846Z,29.11
2018-09-01T17:15:40.610Z,28.88
2018-09-01T17:18:10.272Z,28.83
2018-09-01T17:20:39.191Z,28.70
2018-09-01T17:23:07.978Z,28.50
2018-09-01T17:25:37.375Z,28.51
2018-09-01T17:28:06.306Z,28.43
2018-09-01T17:30:35.054Z,28.18
2018-09-01T17:33:03.835Z,28.03
2018-09-01T17:35:32.488Z,27.95
2018-09-01T17:38:01.794Z,27.91
2018-09-01T17:40:30.806Z,27.91
2018-09-01T17:42:59.799Z,27.83
2018-09-01T17:45:29.086Z,27.72
2018-09-01T17:47:58.270Z,27.63
2018-09-01T17:50:27.169Z,27.57
2018-09-01T17:52:56.615Z,27.45
2018-09-01T17:55:25.616Z,27.23
2018-09-01T17:57:54.206Z,27.23
2018-09-01T18:00:23.062Z,27.14
2018-09-01T18:02:51.666Z,27.00
2018-09-01T18:05:21.038Z,26.91
2018-09-01T18:07:50.131Z,26.81
2018-09-01T18:10:19.058Z,26.44
2018-09-01T18:12:48.147Z,26.21
2018-09-01T18:15:17.453Z,26.16
2018-09-01T18:17:46.749Z,26.01
2018-09-01T18:20:15.820Z,25.78
2018-09-01T18:22:44.846Z,26.00
2018-09-01T18:25:13.951Z,25.74
2018-09-01T18:27:42.658Z,25.68
2018-09-01T18:30:11.762Z,25.64
2018-09-01T18:32:40.449Z,25.24
2018-09-01T18:35:10.788Z,25.31
2018-09-01T18:37:39.779Z,24.99
2018-09-01T18:40:08.895Z,24.97
2018-09-01T18:42:38.183Z,24.94
2018-09-01T18:45:08.005Z,24.78
2018-09-01T18:47:36.898Z,24.36
2018-09-01T18:50:06.130Z,23.93
2018-09-01T18:52:35.004Z,24.31
2018-09-01T18:55:04.005Z,24.00
2018-09-01T18:57:33.101Z,24.00
2018-09-01T19:00:01.818Z,23.77
2018-09-01T19:02:30.721Z,23.94
2018-09-01T19:04:59.933Z,23.99
2018-09-01T19:07:28.957Z,23.88
2018-09-01T19:09:57.743Z,23.65
2018-09-01T19:12:27.282Z,23.53
2018-09-01T19:14:56.268Z,23.57
2018-09-01T19:17:25.395Z,23.20
2018-09-01T19:19:54.539Z,23.18
2018-09-01T19:22:23.513Z,23.41
2018-09-01T19:24:52.523Z,23.29
2018-09-01T19:27:21.742Z,23.04
2018-09-01T19:29:50.462Z,23.09
2018-09-01T19:32:19.440Z,23.05
2018-09-01T19:34:48.755Z,22.98
2018-09-01T19:37:17.851Z,22.82
2018-09-01T19:39:47.003Z,22.78
2018-09-01T19:42:15.973Z,22.77
2018-09-01T19:44:44.740Z,22.80
2018-09-01T19:47:13.886Z,22.58
2018-09-01T19:49:42.811Z,21.40
2018-09-01T19:52:11.805Z,22.42
2018-09-01T19:54:40.500Z,22.40
2018-09-01T19:57:09.695Z,22.54
2018-09-01T19:59:38.330Z,22.71
2018-09-01T20:02:07.216Z,22.74
2018-09-01T20:04:36.584Z,22.59
2018-09-01T20:07:05.462Z,22.53
2018-09-01T20:09:34.575Z,22.54
2018-09-01T20:12:03.745Z,22.33
2018-09-01T20:14:32.875Z,22.41
2018-09-01T20:17:01.673Z,22.37
2018-09-01T20:19:30.710Z,22.45
2018-09-01T20:21:59.498Z,22.46
2018-09-01T20:24:28.322Z,22.43
2018-09-01T20:26:57.459Z,22.27
2018-09-01T20:29:26.192Z,22.31
2018-09-01T20:31:55.133Z,22.39
2018-09-01T20:34:24.288Z,22.37
2018-09-01T20:36:55.951Z,22.28
2018-09-01T20:39:24.929Z,22.28
2018-09-01T20:41:54.214Z,22.37
2018-09-01T20:44:23.409Z,22.42
2018-09-01T20:46:52.423Z,22.63
2018-09-01T20:49:21.278Z,22.55
2018-09-01T20:51:50.355Z,22.66
2018-09-01T20:54:19.502Z,22.63
2018-09-01T20:56:48.387Z,22.49
2018-09-01T20:59:16.986Z,22.17
2018-09-01T21:01:46.175Z,22.17
2018-09-01T21:04:14.899Z,22.26
2018-09-01T21:06:43.714Z,21.87
2018-09-01T21:09:12.960Z,21.83
2018-09-01T21:11:43.119Z,21.94
2018-09-01T21:14:12.493Z,21.98
2018-09-01T21:16:41.768Z,21.96
2018-09-01T21:19:10.757Z,21.96
2018-09-01T21:21:40.121Z,22.00
2018-09-01T21:24:09.055Z,22.04
2018-09-01T21:26:37.830Z,21.58
2018-09-01T21:29:06.955Z,21.64
2018-09-01T21:31:35.688Z,21.61
2018-09-01T21:34:04.577Z,21.63
2018-09-01T21:36:34.143Z,21.50
2018-09-01T21:39:02.791Z,21.54
2018-09-01T21:41:31.424Z,21.19
2018-09-01T21:44:00.526Z,21.27
2018-09-01T21:46:29.594Z,21.36
2018-09-01T21:48:58.512Z,21.27
2018-09-01T21:51:27.311Z,20.99
2018-09-01T21:53:56.240Z,21.07
2018-09-01T21:56:25.532Z,20.91
2018-09-01T21:58:54.426Z,20.80
2018-09-01T22:01:28.504Z,20.61
2018-09-01T22:03:57.374Z,20.74
2018-09-01T22:06:26.259Z,20.72
2018-09-01T22:08:55.575Z,20.71
2018-09-01T22:11:24.216Z,20.53
2018-09-01T22:13:53.096Z,20.55
2018-09-01T22:16:22.047Z,20.31
2018-09-01T22:18:51.129Z,20.16
2018-09-01T22:21:19.889Z,20.10
2018-09-01T22:23:49.035Z,20.26
2018-09-01T22:26:17.747Z,20.31
2018-09-01T22:28:46.426Z,20.19
2018-09-01T22:31:15.489Z,20.18
2018-09-01T22:33:44.579Z,20.27
2018-09-01T22:36:13.302Z,20.29
2018-09-01T22:38:42.494Z,20.44
2018-09-01T22:41:11.863Z,20.35
2018-09-01T22:43:40.635Z,20.12
2018-09-01T22:46:09.475Z,20.17
2018-09-01T22:48:38.235Z,20.02
2018-09-01T22:51:07.073Z,20.22
2018-09-01T22:53:36.254Z,20.29
2018-09-01T22:56:05.116Z,20.40
2018-09-01T22:58:33.830Z,20.17
2018-09-01T23:01:02.810Z,20.20
2018-09-01T23:03:31.681Z,19.88
2018-09-01T23:06:00.752Z,20.01
2018-09-01T23:08:29.715Z,20.09
2018-09-01T23:10:58.795Z,19.74
2018-09-01T23:13:27.772Z,19.63
2018-09-01T23:15:57.083Z,19.72
2018-09-01T23:18:26.036Z,19.57
2018-09-01T23:20:55.092Z,19.47
2018-09-01T23:23:24.522Z,19.40
2018-09-01T23:25:53.114Z,19.39
2018-09-01T23:28:21.866Z,19.35
2018-09-01T23:30:50.826Z,19.22
2018-09-01T23:33:19.939Z,19.25
2018-09-01T23:35:49.019Z,19.31
2018-09-01T23:38:18.240Z,19.23
2018-09-01T23:40:46.909Z,19.14
2018-09-01T23:43:15.842Z,19.15
2018-09-01T23:45:44.999Z,19.19
2018-09-01T23:48:13.887Z,19.08
2018-09-01T23:50:42.979Z,19.16
2018-09-01T23:53:11.910Z,19.28
2018-09-01T23:55:40.747Z,19.30
2018-09-01T23:58:09.423Z,19.26
